Time;durP1;ratioP1;P1;durP2;ratioP2;P2;SDS_P1;SDS_P2;PMS_P1;PMS_P2;Temp;Humidity;BMP_temperature;BMP_pressure;BME280_temperature;BME280_humidity;BME280_pressure;Samples;Min_cycle;Max_cycle;Signal;HPM_P1;HPM_P2
2022/03/01 00:01:17;;;;;;;;;;;;;;;;;;5086426;28;19927;-78
2022/03/01 00:03:42;;;;;;;;;;;;;;;;;;5090963;28;19943;-77
2022/03/01 00:06:07;;;;;;;;;;;;;;;;;;5086976;28;19916;-77
2022/03/01 00:08:33;;;;;;;;;;;;;;;;;;5076309;28;19920;-79
2022/03/01 00:10:59;;;;;;;;;;;;;;;;;;5072065;28;19960;-77
2022/03/01 00:13:25;;;;;;;;;;;;;;;;;;5090859;28;19920;-77
2022/03/01 00:15:50;;;;;;;;;;;;;;;;;;5079589;28;19930;-77
2022/03/01 00:18:15;;;;;;;;;;;;;;;;;;5074205;28;19920;-77
2022/03/01 00:20:41;;;;;;;;;;;;;;;;;;5072034;28;19934;-78
2022/03/01 00:23:06;;;;;;;;;;;;;;;;;;5071820;28;19920;-77
2022/03/01 00:25:32;;;;;;;;;;;;;;;;;;5071723;28;19919;-78
2022/03/01 00:27:57;;;;;;;;;;;;;;;;;;5072149;28;20291;-78
2022/03/01 00:30:23;;;;;;;;;;;;;;;;;;5078593;28;19920;-78
2022/03/01 00:32:49;;;;;;;;;;;;;;;;;;5077689;28;19920;-79
2022/03/01 00:35:15;;;;;;;;;;;;;;;;;;5083988;28;19939;-78
2022/03/01 00:37:40;;;;;;;;;;;;;;;;;;5082318;28;20380;-78
2022/03/01 00:40:06;;;;;;;;;;;;;;;;;;5074652;28;19924;-77
2022/03/01 00:42:31;;;;;;;;;;;;;;;;;;5060292;28;19931;-78
2022/03/01 00:44:56;;;;;;;;;;;;;;;;;;5062777;28;19920;-77
2022/03/01 00:47:22;;;;;;;;;;;;;;;;;;5075689;28;20376;-77
2022/03/01 00:49:47;;;;;;;;;;;;;;;;;;5078279;28;19924;-78
2022/03/01 00:52:13;;;;;;;;;;;;;;;;;;5076117;28;19928;-80
2022/03/01 00:54:38;;;;;;;;;;;;;;;;;;5077392;28;19974;-77
2022/03/01 00:57:04;;;;;;;;;;;;;;;;;;5080081;28;19920;-79
2022/03/01 00:59:30;;;;;;;;;;;;;;;;;;5077726;28;19921;-80
2022/03/01 01:01:55;;;;;;;;;;;;;;;;;;5080155;28;19970;-81
2022/03/01 01:04:20;;;;;;;;;;;;;;;;;;5078614;28;19967;-78
2022/03/01 01:06:46;;;;;;;;;;;;;;;;;;5076839;28;20442;-78
2022/03/01 01:09:14;;;;;;;;;;;;;;;;;;5078989;28;20344;-80
2022/03/01 01:11:40;;;;;;;;;;;;;;;;;;5078738;28;19925;-77
2022/03/01 01:14:05;;;;;;;;;;;;;;;;;;5061526;28;19920;-77
2022/03/01 01:16:31;;;;;;;;;;;;;;;;;;5083746;28;20285;-77
2022/03/01 01:18:56;;;;;;;;;;;;;;;;;;5078377;28;19920;-78
2022/03/01 01:21:22;;;;;;;;;;;;;;;;;;5059440;28;19970;-77
2022/03/01 01:23:47;;;;;;;;;;;;;;;;;;5076702;28;20438;-81
2022/03/01 01:26:12;;;;;;;;;;;;;;;;;;5079408;28;19920;-77
2022/03/01 01:28:38;;;;;;;;;;;;;;;;;;5061972;28;19935;-77
2022/03/01 01:31:04;;;;;;;;;;;;;;;;;;5076547;28;20430;-77
2022/03/01 01:33:29;;;;;;;;;;;;;;;;;;5078439;28;20349;-78
2022/03/01 01:35:54;;;;;;;;;;;;;;;;;;5080135;28;20356;-81
2022/03/01 01:38:20;;;;;;;;;;;;;;;;;;5082121;28;20386;-80
2022/03/01 01:40:45;;;;;;;;;;;;;;;;;;5080308;28;19928;-77
2022/03/01 01:43:11;;;;;;;;;;;;;;;;;;5080680;28;19939;-79
2022/03/01 01:45:36;;;;;;;;;;;;;;;;;;5084831;28;19920;-78
2022/03/01 01:48:02;;;;;;;;;;;;;;;;;;5071224;28;20476;-77
2022/03/01 01:50:29;;;;;;;;;;;;;;;;;;5070656;28;19917;-81
2022/03/01 01:52:55;;;;;;;;;;;;;;;;;;5072168;28;19924;-78
2022/03/01 01:55:20;;;;;;;;;;;;;;;;;;5090816;28;20386;-80
2022/03/01 01:57:46;;;;;;;;;;;;;;;;;;5091212;28;19923;-84
2022/03/01 02:00:12;;;;;;;;;;;;;;;;;;5091242;28;19923;-77
2022/03/01 02:02:38;;;;;;;;;;;;;;;;;;5087909;28;19928;-77
2022/03/01 02:05:04;;;;;;;;;;;;;;;;;;5074805;28;19921;-81
2022/03/01 02:07:29;;;;;;;;;;;;;;;;;;5080404;28;20352;-78
2022/03/01 02:09:55;;;;;;;;;;;;;;;;;;5074482;28;19916;-77
2022/03/01 02:12:21;;;;;;;;;;;;;;;;;;5074266;28;19999;-78
2022/03/01 02:14:47;;;;;;;;;;;;;;;;;;5055861;28;20007;-78
2022/03/01 02:17:13;;;;;;;;;;;;;;;;;;5094412;28;20352;-79
2022/03/01 02:19:39;;;;;;;;;;;;;;;;;;5094542;28;19916;-79
2022/03/01 02:22:05;;;;;;;;;;;;;;;;;;5085778;28;20770;-77
2022/03/01 02:24:31;;;;;;;;;;;;;;;;;;5074440;28;19916;-79
2022/03/01 02:26:57;;;;;;;;;;;;;;;;;;5074438;28;20011;-78
2022/03/01 02:29:23;;;;;;;;;;;;;;;;;;5092825;28;20493;-78
2022/03/01 02:31:49;;;;;;;;;;;;;;;;;;5094299;28;19916;-78
2022/03/01 02:34:15;;;;;;;;;;;;;;;;;;5076060;28;19916;-79
2022/03/01 02:36:40;;;;;;;;;;;;;;;;;;5085539;28;19927;-80
2022/03/01 02:39:06;;;;;;;;;;;;;;;;;;5095086;28;19920;-80
2022/03/01 02:41:31;;;;;;;;;;;;;;;;;;5085207;28;19916;-77
2022/03/01 02:43:56;;;;;;;;;;;;;;;;;;5076547;28;19967;-81
2022/03/01 02:46:22;;;;;;;;;;;;;;;;;;5063547;28;19930;-78
2022/03/01 02:48:47;;;;;;;;;;;;;;;;;;5076783;28;19977;-80
2022/03/01 02:51:13;;;;;;;;;;;;;;;;;;5084741;28;19920;-78
2022/03/01 02:53:38;;;;;;;;;;;;;;;;;;5083247;28;19924;-80
2022/03/01 02:56:04;;;;;;;;;;;;;;;;;;5083689;28;19920;-77
2022/03/01 02:58:29;;;;;;;;;;;;;;;;;;5082585;28;20431;-80
2022/03/01 03:00:55;;;;;;;;;;;;;;;;;;5083218;28;19928;-79
2022/03/01 03:03:20;;;;;;;;;;;;;;;;;;5087551;28;20045;-83
2022/03/01 03:05:46;;;;;;;;;;;;;;;;;;5079939;28;19921;-77
2022/03/01 03:08:11;;;;;;;;;;;;;;;;;;5081416;28;20376;-81
2022/03/01 03:10:37;;;;;;;;;;;;;;;;;;5080438;28;19924;-77
2022/03/01 03:13:03;;;;;;;;;;;;;;;;;;5080819;28;19919;-80
2022/03/01 03:15:28;;;;;;;;;;;;;;;;;;5079707;28;19920;-81
2022/03/01 03:17:54;;;;;;;;;;;;;;;;;;5082511;28;19916;-77
2022/03/01 03:20:20;;;;;;;;;;;;;;;;;;5080543;28;19927;-79
2022/03/01 03:22:46;;;;;;;;;;;;;;;;;;5079917;28;19928;-76
2022/03/01 03:25:11;;;;;;;;;;;;;;;;;;5062798;28;19920;-78
2022/03/01 03:27:37;;;;;;;;;;;;;;;;;;5074597;28;19977;-83
2022/03/01 03:30:03;;;;;;;;;;;;;;;;;;5074689;28;19978;-76
2022/03/01 03:32:29;;;;;;;;;;;;;;;;;;5093974;28;19926;-76
2022/03/01 03:34:54;;;;;;;;;;;;;;;;;;5094384;28;19920;-77
2022/03/01 03:37:20;;;;;;;;;;;;;;;;;;5094804;28;19985;-78
2022/03/01 03:39:45;;;;;;;;;;;;;;;;;;5094663;28;19920;-77
2022/03/01 03:42:10;;;;;;;;;;;;;;;;;;5076317;28;19969;-77
2022/03/01 03:44:38;;;;;;;;;;;;;;;;;;5094570;28;19923;-76
2022/03/01 03:47:04;;;;;;;;;;;;;;;;;;5094611;28;19916;-77
2022/03/01 03:49:29;;;;;;;;;;;;;;;;;;5080334;28;19962;-77
2022/03/01 03:51:55;;;;;;;;;;;;;;;;;;5074060;28;20368;-78
2022/03/01 03:54:21;;;;;;;;;;;;;;;;;;5073815;28;20383;-77
2022/03/01 03:56:46;;;;;;;;;;;;;;;;;;5088702;28;20292;-77
2022/03/01 03:59:12;;;;;;;;;;;;;;;;;;5078270;28;20010;-78
2022/03/01 04:01:37;;;;;;;;;;;;;;;;;;5093346;28;19924;-77
2022/03/01 04:04:03;;;;;;;;;;;;;;;;;;5083122;28;20394;-78
2022/03/01 04:06:28;;;;;;;;;;;;;;;;;;5086229;28;19920;-77
2022/03/01 04:08:53;;;;;;;;;;;;;;;;;;5079364;28;20015;-78
2022/03/01 04:11:19;;;;;;;;;;;;;;;;;;5087757;28;20003;-77
2022/03/01 04:13:44;;;;;;;;;;;;;;;;;;5083237;28;19950;-77
2022/03/01 04:16:10;;;;;;;;;;;;;;;;;;5079934;28;19978;-77
2022/03/01 04:18:35;;;;;;;;;;;;;;;;;;5083408;28;19920;-79
2022/03/01 04:21:01;;;;;;;;;;;;;;;;;;5091284;28;19924;-78
2022/03/01 04:23:27;;;;;;;;;;;;;;;;;;5085688;28;19928;-80
2022/03/01 04:25:53;;;;;;;;;;;;;;;;;;5083734;28;19951;-81
2022/03/01 04:28:19;;;;;;;;;;;;;;;;;;5078925;28;19959;-82
2022/03/01 04:30:44;;;;;;;;;;;;;;;;;;5079524;28;19924;-79
2022/03/01 04:33:10;;;;;;;;;;;;;;;;;;5073833;28;20292;-81
2022/03/01 04:35:35;;;;;;;;;;;;;;;;;;5084998;28;19970;-77
2022/03/01 04:38:01;;;;;;;;;;;;;;;;;;5092070;28;19920;-82
2022/03/01 04:40:26;;;;;;;;;;;;;;;;;;5073790;28;20380;-79
2022/03/01 04:42:52;;;;;;;;;;;;;;;;;;5093171;28;19920;-83
2022/03/01 04:45:17;;;;;;;;;;;;;;;;;;5093924;28;19923;-79
2022/03/01 04:47:43;;;;;;;;;;;;;;;;;;5080749;28;19962;-77
2022/03/01 04:50:09;;;;;;;;;;;;;;;;;;5078794;28;19946;-77
2022/03/01 04:52:35;;;;;;;;;;;;;;;;;;5080996;28;20033;-78
2022/03/01 04:55:00;;;;;;;;;;;;;;;;;;5080985;28;19928;-77
2022/03/01 04:57:26;;;;;;;;;;;;;;;;;;5081620;28;19917;-76
2022/03/01 04:59:51;;;;;;;;;;;;;;;;;;5073793;28;19916;-77
2022/03/01 05:02:16;;;;;;;;;;;;;;;;;;5092148;28;19970;-77
2022/03/01 05:04:42;;;;;;;;;;;;;;;;;;5093770;28;19916;-78
2022/03/01 05:07:07;;;;;;;;;;;;;;;;;;5081682;28;20287;-79
2022/03/01 05:09:34;;;;;;;;;;;;;;;;;;5083464;28;19943;-78
2022/03/01 05:11:59;;;;;;;;;;;;;;;;;;5087879;28;19927;-78
2022/03/01 05:14:25;;;;;;;;;;;;;;;;;;5086617;28;19922;-76
2022/03/01 05:16:50;;;;;;;;;;;;;;;;;;5082848;28;19984;-81
2022/03/01 05:19:16;;;;;;;;;;;;;;;;;;5084319;28;19948;-79
2022/03/01 05:21:41;;;;;;;;;;;;;;;;;;5084544;28;19974;-77
2022/03/01 05:24:07;;;;;;;;;;;;;;;;;;5088190;28;20316;-80
2022/03/01 05:26:33;;;;;;;;;;;;;;;;;;5082783;28;19920;-77
2022/03/01 05:28:58;;;;;;;;;;;;;;;;;;5085945;28;20300;-77
2022/03/01 05:31:24;;;;;;;;;;;;;;;;;;5086033;28;19920;-77
2022/03/01 05:33:50;;;;;;;;;;;;;;;;;;5087723;28;19927;-77
2022/03/01 05:36:15;;;;;;;;;;;;;;;;;;5083079;28;20272;-84
2022/03/01 05:38:41;;;;;;;;;;;;;;;;;;5086705;28;19976;-82
2022/03/01 05:41:06;;;;;;;;;;;;;;;;;;5088560;28;20407;-78
2022/03/01 05:43:32;;;;;;;;;;;;;;;;;;5091349;28;19920;-77
2022/03/01 05:45:57;;;;;;;;;;;;;;;;;;5092139;28;19927;-79
2022/03/01 05:48:23;;;;;;;;;;;;;;;;;;5085419;28;19921;-78
2022/03/01 05:50:48;;;;;;;;;;;;;;;;;;5082781;28;20388;-78
2022/03/01 05:53:14;;;;;;;;;;;;;;;;;;5087929;28;19928;-78
2022/03/01 05:55:39;;;;;;;;;;;;;;;;;;5085170;28;20018;-77
2022/03/01 05:58:05;;;;;;;;;;;;;;;;;;5090063;28;19922;-79
2022/03/01 06:00:30;;;;;;;;;;;;;;;;;;5083168;28;19931;-77
2022/03/01 06:02:56;;;;;;;;;;;;;;;;;;5095900;28;19955;-76
2022/03/01 06:05:21;;;;;;;;;;;;;;;;;;5096329;28;19923;-77
2022/03/01 06:07:47;;;;;;;;;;;;;;;;;;5092019;28;20394;-77
2022/03/01 06:10:12;;;;;;;;;;;;;;;;;;5088009;28;20018;-78
2022/03/01 06:12:37;;;;;;;;;;;;;;;;;;5076802;28;20020;-77
2022/03/01 06:15:04;;;;;;;;;;;;;;;;;;5076325;28;19970;-85
2022/03/01 06:17:29;;;;;;;;;;;;;;;;;;5078495;28;20360;-80
2022/03/01 06:19:54;;;;;;;;;;;;;;;;;;5094427;28;19920;-80
2022/03/01 06:22:20;;;;;;;;;;;;;;;;;;5094698;28;19928;-80
2022/03/01 06:24:45;;;;;;;;;;;;;;;;;;5092075;28;19925;-79
2022/03/01 06:27:11;;;;;;;;;;;;;;;;;;5079715;28;19923;-80
2022/03/01 06:29:37;;;;;;;;;;;;;;;;;;5095700;28;19968;-80
2022/03/01 06:32:03;;;;;;;;;;;;;;;;;;5083534;28;19928;-79
2022/03/01 06:34:28;;;;;;;;;;;;;;;;;;5085111;28;20009;-81
2022/03/01 06:36:54;;;;;;;;;;;;;;;;;;5095014;28;19950;-80
2022/03/01 06:39:19;;;;;;;;;;;;;;;;;;5089763;28;19920;-78
2022/03/01 06:41:45;;;;;;;;;;;;;;;;;;5090109;28;20085;-80
2022/03/01 06:44:10;;;;;;;;;;;;;;;;;;5096047;28;20390;-79
2022/03/01 06:46:36;;;;;;;;;;;;;;;;;;5078195;28;20318;-79
2022/03/01 06:49:02;;;;;;;;;;;;;;;;;;5094190;28;19928;-85
2022/03/01 06:51:27;;;;;;;;;;;;;;;;;;5069485;28;19920;-87
2022/03/01 06:53:53;;;;;;;;;;;;;;;;;;5090988;28;20384;-89
2022/03/01 06:56:19;;;;;;;;;;;;;;;;;;5096012;28;19969;-89
2022/03/01 06:58:44;;;;;;;;;;;;;;;;;;5095657;28;19916;-80
2022/03/01 07:01:10;;;;;;;;;;;;;;;;;;5095032;28;19963;-79
2022/03/01 07:03:35;;;;;;;;;;;;;;;;;;5095700;28;19958;-78
2022/03/01 07:06:01;;;;;;;;;;;;;;;;;;5095080;28;19962;-77
2022/03/01 07:08:26;;;;;;;;;;;;;;;;;;5094813;28;19920;-79
2022/03/01 07:10:52;;;;;;;;;;;;;;;;;;5094680;28;19920;-79
2022/03/01 07:13:17;;;;;;;;;;;;;;;;;;5089533;28;19920;-81
2022/03/01 07:15:43;;;;;;;;;;;;;;;;;;5086673;28;20360;-84
2022/03/01 07:18:08;;;;;;;;;;;;;;;;;;5081822;28;19928;-85
2022/03/01 07:20:34;;;;;;;;;;;;;;;;;;5081065;28;19924;-85
2022/03/01 07:23:00;;;;;;;;;;;;;;;;;;5085860;28;19924;-77
2022/03/01 07:25:25;;;;;;;;;;;;;;;;;;5087046;28;19923;-76
2022/03/01 07:27:52;;;;;;;;;;;;;;;;;;5084348;28;19920;-84
2022/03/01 07:30:18;;;;;;;;;;;;;;;;;;5077432;28;19928;-79
2022/03/01 07:32:43;;;;;;;;;;;;;;;;;;5085869;28;20253;-77
2022/03/01 07:35:09;;;;;;;;;;;;;;;;;;5066258;28;20037;-77
2022/03/01 07:37:37;;;;;;;;;;;;;;;;;;5083667;28;19920;-78
2022/03/01 07:40:03;;;;;;;;;;;;;;;;;;5079842;28;19920;-85
2022/03/01 07:42:29;;;;;;;;;;;;;;;;;;5081334;28;20775;-84
2022/03/01 07:44:54;;;;;;;;;;;;;;;;;;5082532;28;19920;-78
2022/03/01 07:47:20;;;;;;;;;;;;;;;;;;5081193;28;19924;-88
2022/03/01 07:49:47;;;;;;;;;;;;;;;;;;5079778;28;19966;-76
2022/03/01 07:52:12;;;;;;;;;;;;;;;;;;5075424;28;19932;-76
2022/03/01 07:54:37;;;;;;;;;;;;;;;;;;5079998;28;20372;-76
2022/03/01 07:57:03;;;;;;;;;;;;;;;;;;5088021;28;19973;-76
2022/03/01 07:59:28;;;;;;;;;;;;;;;;;;5092477;28;19927;-77
2022/03/01 08:01:55;;;;;;;;;;;;;;;;;;5089046;28;19981;-77
2022/03/01 08:04:20;;;;;;;;;;;;;;;;;;5090041;28;20421;-78
2022/03/01 08:06:45;;;;;;;;;;;;;;;;;;5093282;28;19951;-81
2022/03/01 08:09:11;;;;;;;;;;;;;;;;;;5094035;28;20283;-80
2022/03/01 08:11:37;;;;;;;;;;;;;;;;;;5090765;28;20338;-77
2022/03/01 08:14:02;;;;;;;;;;;;;;;;;;5081749;28;19927;-75
2022/03/01 08:16:28;;;;;;;;;;;;;;;;;;5083766;28;19920;-78
2022/03/01 08:18:53;;;;;;;;;;;;;;;;;;5089708;28;20016;-76
2022/03/01 08:21:19;;;;;;;;;;;;;;;;;;5091702;28;19920;-75
2022/03/01 08:23:44;;;;;;;;;;;;;;;;;;5093097;28;20260;-77
2022/03/01 08:26:10;;;;;;;;;;;;;;;;;;5086300;28;19924;-75
2022/03/01 08:28:35;;;;;;;;;;;;;;;;;;5079074;28;19920;-77
2022/03/01 08:31:01;;;;;;;;;;;;;;;;;;5085065;28;19923;-75
2022/03/01 08:33:26;;;;;;;;;;;;;;;;;;5081019;28;19920;-74
2022/03/01 08:35:55;;;;;;;;;;;;;;;;;;5080228;28;19928;-76
2022/03/01 08:38:21;;;;;;;;;;;;;;;;;;5086101;28;19924;-76
2022/03/01 08:40:46;;;;;;;;;;;;;;;;;;5087267;28;19916;-76
2022/03/01 08:43:13;;;;;;;;;;;;;;;;;;5090623;28;20021;-80
2022/03/01 08:45:39;;;;;;;;;;;;;;;;;;5091934;28;19942;-86
2022/03/01 08:48:04;;;;;;;;;;;;;;;;;;5093764;28;20351;-82
2022/03/01 08:50:30;;;;;;;;;;;;;;;;;;5087420;28;20019;-75
2022/03/01 08:52:56;;;;;;;;;;;;;;;;;;5092136;28;19961;-80
2022/03/01 08:55:21;;;;;;;;;;;;;;;;;;5092516;28;19928;-78
2022/03/01 08:57:47;;;;;;;;;;;;;;;;;;5079462;28;19920;-80
2022/03/01 09:00:14;;;;;;;;;;;;;;;;;;5073224;28;20368;-77
2022/03/01 09:02:39;;;;;;;;;;;;;;;;;;5073667;28;20364;-77
2022/03/01 09:05:08;;;;;;;;;;;;;;;;;;5090349;28;19969;-78
2022/03/01 09:07:34;;;;;;;;;;;;;;;;;;5084857;28;20393;-78
2022/03/01 09:10:00;;;;;;;;;;;;;;;;;;5085665;28;19924;-82
2022/03/01 09:12:25;;;;;;;;;;;;;;;;;;5097217;28;19912;-83
2022/03/01 09:14:51;;;;;;;;;;;;;;;;;;5095583;28;19920;-82
2022/03/01 09:17:16;;;;;;;;;;;;;;;;;;5078031;28;19923;-78
2022/03/01 09:19:42;;;;;;;;;;;;;;;;;;5095289;28;19920;-80
2022/03/01 09:22:07;;;;;;;;;;;;;;;;;;5074685;28;20025;-80
2022/03/01 09:24:33;;;;;;;;;;;;;;;;;;5092069;28;19966;-83
2022/03/01 09:27:01;;;;;;;;;;;;;;;;;;5094159;28;19920;-83
2022/03/01 09:29:30;;;;;;;;;;;;;;;;;;5078943;28;20357;-79
2022/03/01 09:31:56;;;;;;;;;;;;;;;;;;5070526;28;20376;-83
2022/03/01 09:34:21;;;;;;;;;;;;;;;;;;5085986;28;19920;-78
2022/03/01 09:36:47;;;;;;;;;;;;;;;;;;5082761;28;19943;-83
2022/03/01 09:39:12;;;;;;;;;;;;;;;;;;5096492;28;20360;-84
2022/03/01 09:41:38;;;;;;;;;;;;;;;;;;5097250;28;20317;-84
2022/03/01 09:44:04;;;;;;;;;;;;;;;;;;5078465;28;19920;-82
2022/03/01 09:46:30;;;;;;;;;;;;;;;;;;5097280;28;20359;-82
2022/03/01 09:48:56;;;;;;;;;;;;;;;;;;5097255;28;20003;-81
2022/03/01 09:51:21;;;;;;;;;;;;;;;;;;5097205;28;19959;-83
2022/03/01 09:53:48;;;;;;;;;;;;;;;;;;5071217;28;19924;-76
2022/03/01 09:56:14;;;;;;;;;;;;;;;;;;5092106;28;19923;-80
2022/03/01 09:58:39;;;;;;;;;;;;;;;;;;5082413;28;19959;-78
2022/03/01 10:01:05;;;;;;;;;;;;;;;;;;5090270;28;19955;-76
2022/03/01 10:03:33;;;;;;;;;;;;;;;;;;5082735;28;20435;-77
2022/03/01 10:06:09;;;;;;;;;;;;;;;;;;5084942;28;19920;-77
2022/03/01 10:08:34;;;;;;;;;;;;;;;;;;5082327;28;19970;-77
2022/03/01 10:11:00;;;;;;;;;;;;;;;;;;5083900;28;19920;-81
2022/03/01 10:13:32;;;;;;;;;;;;;;;;;;5088430;28;19954;-80
2022/03/01 10:16:27;;;;;;;;;;;;;;;;;;5095785;28;20011;-77
2022/03/01 10:19:00;;;;;;;;;;;;;;;;;;5070101;28;19960;-78
2022/03/01 10:21:25;;;;;;;;;;;;;;;;;;5081762;28;19924;-77
2022/03/01 10:23:59;;;;;;;;;;;;;;;;;;5079325;28;19928;-78
2022/03/01 10:26:29;;;;;;;;;;;;;;;;;;5079443;28;19968;-77
2022/03/01 10:28:56;;;;;;;;;;;;;;;;;;5082486;28;19923;-78
2022/03/01 10:31:24;;;;;;;;;;;;;;;;;;5080286;28;20063;-78
2022/03/01 10:33:57;;;;;;;;;;;;;;;;;;5065929;28;19965;-78
2022/03/01 10:36:23;;;;;;;;;;;;;;;;;;5085661;28;19959;-76
2022/03/01 10:39:00;;;;;;;;;;;;;;;;;;5084732;28;20019;-76
2022/03/01 10:41:29;;;;;;;;;;;;;;;;;;5080446;28;19966;-77
2022/03/01 10:43:59;;;;;;;;;;;;;;;;;;5080819;28;19924;-77
2022/03/01 10:46:28;;;;;;;;;;;;;;;;;;5080961;28;19924;-77
2022/03/01 10:49:00;;;;;;;;;;;;;;;;;;5094157;28;19952;-76
2022/03/01 10:51:25;;;;;;;;;;;;;;;;;;5081631;28;19920;-80
2022/03/01 10:53:50;;;;;;;;;;;;;;;;;;5082457;28;19924;-76
2022/03/01 10:56:16;;;;;;;;;;;;;;;;;;5070664;28;19920;-79
2022/03/01 10:58:43;;;;;;;;;;;;;;;;;;5087375;28;20007;-78
2022/03/01 11:01:09;;;;;;;;;;;;;;;;;;5084497;28;19959;-77
2022/03/01 11:03:35;;;;;;;;;;;;;;;;;;5088666;28;20366;-84
2022/03/01 11:06:01;;;;;;;;;;;;;;;;;;5095743;28;19960;-83
2022/03/01 11:08:33;;;;;;;;;;;;;;;;;;5094867;28;19989;-82
2022/03/01 11:11:02;;;;;;;;;;;;;;;;;;5075146;28;19924;-84
2022/03/01 11:13:28;;;;;;;;;;;;;;;;;;5095541;28;20362;-87
2022/03/01 11:15:58;;;;;;;;;;;;;;;;;;5094520;28;19927;-83
2022/03/01 11:18:42;;;;;;;;;;;;;;;;;;5094952;28;20287;-81
2022/03/01 11:21:08;;;;;;;;;;;;;;;;;;5076776;28;19925;-81
2022/03/01 11:23:34;;;;;;;;;;;;;;;;;;5095540;28;20368;-80
2022/03/01 11:26:07;;;;;;;;;;;;;;;;;;5091648;28;19942;-76
2022/03/01 11:28:40;;;;;;;;;;;;;;;;;;5083837;28;19981;-76
2022/03/01 11:31:17;;;;;;;;;;;;;;;;;;5082449;28;19921;-76
2022/03/01 11:33:42;;;;;;;;;;;;;;;;;;5090446;28;20237;-77
2022/03/01 11:36:07;;;;;;;;;;;;;;;;;;5092939;28;19924;-77
2022/03/01 11:38:33;;;;;;;;;;;;;;;;;;5094835;28;19950;-78
2022/03/01 11:41:38;;;;;;;;;;;;;;;;;;;;;
2022/03/01 11:44:07;;;;;;;;;;;;;;;;;;5061507;28;20358;-76
2022/03/01 11:46:39;;;;;;;;;;;;;;;;;;5085935;28;19979;-77
2022/03/01 11:49:04;;;;;;;;;;;;;;;;;;5086116;28;20003;-76
2022/03/01 11:51:32;;;;;;;;;;;;;;;;;;5092690;28;20022;-79
2022/03/01 11:53:58;;;;;;;;;;;;;;;;;;5094484;28;19932;-77
2022/03/01 11:56:24;;;;;;;;;;;;;;;;;;5094658;28;19916;-76
2022/03/01 11:58:50;;;;;;;;;;;;;;;;;;5094732;28;20394;-75
2022/03/01 12:01:20;;;;;;;;;;;;;;;;;;5094963;28;20320;-76
2022/03/01 12:03:47;;;;;;;;;;;;;;;;;;5094327;28;19928;-77
2022/03/01 12:06:12;;;;;;;;;;;;;;;;;;5087395;28;19923;-76
2022/03/01 12:08:38;;;;;;;;;;;;;;;;;;5091894;28;19920;-78
2022/03/01 12:11:04;;;;;;;;;;;;;;;;;;5078402;28;20311;-78
2022/03/01 12:13:33;;;;;;;;;;;;;;;;;;5092772;28;19920;-77
2022/03/01 12:15:59;;;;;;;;;;;;;;;;;;5090937;28;20014;-79
2022/03/01 12:18:28;;;;;;;;;;;;;;;;;;5093059;28;20003;-78
2022/03/01 12:20:54;;;;;;;;;;;;;;;;;;5093513;28;19920;-76
2022/03/01 12:23:27;;;;;;;;;;;;;;;;;;5093182;28;19923;-78
2022/03/01 12:25:52;;;;;;;;;;;;;;;;;;5090061;28;19920;-83
2022/03/01 12:28:20;;;;;;;;;;;;;;;;;;5093775;28;19935;-80
2022/03/01 12:30:45;;;;;;;;;;;;;;;;;;5084544;28;19924;-81
2022/03/01 12:33:15;;;;;;;;;;;;;;;;;;5075107;28;20413;-77
2022/03/01 12:35:41;;;;;;;;;;;;;;;;;;5087625;28;19921;-82
2022/03/01 12:38:08;;;;;;;;;;;;;;;;;;5093986;28;19924;-79
2022/03/01 12:40:33;;;;;;;;;;;;;;;;;;5093180;28;19973;-84
2022/03/01 12:43:03;;;;;;;;;;;;;;;;;;5094063;28;19916;-82
2022/03/01 12:45:32;;;;;;;;;;;;;;;;;;5092420;28;19920;-82
2022/03/01 12:47:58;;;;;;;;;;;;;;;;;;5093963;28;20291;-81
2022/03/01 12:50:23;;;;;;;;;;;;;;;;;;5092752;28;19920;-85
2022/03/01 12:52:55;;;;;;;;;;;;;;;;;;5093861;28;19917;-74
2022/03/01 12:55:21;;;;;;;;;;;;;;;;;;5093720;28;19928;-84
2022/03/01 12:57:49;;;;;;;;;;;;;;;;;;5093148;28;20575;-82
2022/03/01 13:00:15;;;;;;;;;;;;;;;;;;5093824;28;20315;-83
2022/03/01 13:02:51;;;;;;;;;;;;;;;;;;5093659;28;20375;-80
2022/03/01 13:05:27;;;;;;;;;;;;;;;;;;5092067;28;20426;-86
2022/03/01 13:07:52;;;;;;;;;;;;;;;;;;5085775;28;19968;-83
2022/03/01 13:10:32;;;;;;;;;;;;;;;;;;5084910;28;20335;-84
2022/03/01 13:12:58;;;;;;;;;;;;;;;;;;5089873;28;19942;-76
2022/03/01 13:15:24;;;;;;;;;;;;;;;;;;5086614;28;20383;-80
2022/03/01 13:17:53;;;;;;;;;;;;;;;;;;5082360;28;19927;-80
2022/03/01 13:20:20;;;;;;;;;;;;;;;;;;5093634;28;19969;-81
2022/03/01 13:22:46;;;;;;;;;;;;;;;;;;5093537;28;20019;-75
2022/03/01 13:25:11;;;;;;;;;;;;;;;;;;5093605;28;20105;-83
2022/03/01 13:27:46;;;;;;;;;;;;;;;;;;5092856;28;19923;-82
2022/03/01 13:30:11;;;;;;;;;;;;;;;;;;5092760;28;19927;-83
2022/03/01 13:32:37;;;;;;;;;;;;;;;;;;5093020;28;19969;-84
2022/03/01 13:35:04;;;;;;;;;;;;;;;;;;5088055;28;19928;-75
2022/03/01 13:37:29;;;;;;;;;;;;;;;;;;5077857;28;20287;-77
2022/03/01 13:39:55;;;;;;;;;;;;;;;;;;5081030;28;19924;-76
2022/03/01 13:42:21;;;;;;;;;;;;;;;;;;5090289;28;20010;-76
2022/03/01 13:44:49;;;;;;;;;;;;;;;;;;5092776;28;20011;-76
2022/03/01 13:47:22;;;;;;;;;;;;;;;;;;5092899;28;20335;-78
2022/03/01 13:50:07;;;;;;;;;;;;;;;;;;5090910;28;19916;-78
2022/03/01 13:52:36;;;;;;;;;;;;;;;;;;5089534;28;19924;-77
2022/03/01 13:55:02;;;;;;;;;;;;;;;;;;5089676;28;19931;-81
2022/03/01 13:57:31;;;;;;;;;;;;;;;;;;5093149;28;19916;-77
2022/03/01 13:59:58;;;;;;;;;;;;;;;;;;5097018;28;19919;-77
2022/03/01 14:02:23;;;;;;;;;;;;;;;;;;5096274;28;19927;-79
2022/03/01 14:04:58;;;;;;;;;;;;;;;;;;5093641;28;19920;-77
2022/03/01 14:07:24;;;;;;;;;;;;;;;;;;5096061;28;19916;-76
2022/03/01 14:09:51;;;;;;;;;;;;;;;;;;5096856;28;19917;-78
2022/03/01 14:12:17;;;;;;;;;;;;;;;;;;5094123;28;19916;-75
2022/03/01 14:14:44;;;;;;;;;;;;;;;;;;5096585;28;19931;-77
2022/03/01 14:17:18;;;;;;;;;;;;;;;;;;5082434;28;20013;-76
2022/03/01 14:19:56;;;;;;;;;;;;;;;;;;5093802;28;19924;-77
2022/03/01 14:22:23;;;;;;;;;;;;;;;;;;5091830;28;20010;-74
2022/03/01 14:24:50;;;;;;;;;;;;;;;;;;5095862;28;19982;-78
2022/03/01 14:27:17;;;;;;;;;;;;;;;;;;5096355;28;19978;-76
2022/03/01 14:29:43;;;;;;;;;;;;;;;;;;5096572;28;19920;-78
2022/03/01 14:32:09;;;;;;;;;;;;;;;;;;5082179;28;20342;-76
2022/03/01 14:34:34;;;;;;;;;;;;;;;;;;5085604;28;19940;-77
2022/03/01 14:37:00;;;;;;;;;;;;;;;;;;5080560;28;19946;-76
2022/03/01 14:39:25;;;;;;;;;;;;;;;;;;5083535;28;19946;-75
2022/03/01 14:41:51;;;;;;;;;;;;;;;;;;5087983;28;19928;-77
2022/03/01 14:44:16;;;;;;;;;;;;;;;;;;5095801;28;20003;-75
2022/03/01 14:46:42;;;;;;;;;;;;;;;;;;5087337;28;19963;-77
2022/03/01 14:49:07;;;;;;;;;;;;;;;;;;5095620;28;19923;-79
2022/03/01 14:51:33;;;;;;;;;;;;;;;;;;5094314;28;20322;-77
2022/03/01 14:53:58;;;;;;;;;;;;;;;;;;5093566;28;19951;-77
2022/03/01 14:56:24;;;;;;;;;;;;;;;;;;5089534;28;19924;-77
2022/03/01 14:58:49;;;;;;;;;;;;;;;;;;5091322;28;19975;-78
2022/03/01 15:01:15;;;;;;;;;;;;;;;;;;5084331;28;19959;-78
2022/03/01 15:03:41;;;;;;;;;;;;;;;;;;5093382;28;19982;-79
2022/03/01 15:06:07;;;;;;;;;;;;;;;;;;5095876;28;19994;-76
2022/03/01 15:08:33;;;;;;;;;;;;;;;;;;5088612;28;20427;-80
2022/03/01 15:10:58;;;;;;;;;;;;;;;;;;5083255;28;19968;-78
2022/03/01 15:13:25;;;;;;;;;;;;;;;;;;5084793;28;20403;-79
2022/03/01 15:15:50;;;;;;;;;;;;;;;;;;5084177;28;19993;-78
2022/03/01 15:18:18;;;;;;;;;;;;;;;;;;5080751;28;20406;-79
2022/03/01 15:20:44;;;;;;;;;;;;;;;;;;5080113;28;19924;-80
2022/03/01 15:23:10;;;;;;;;;;;;;;;;;;5082417;28;20436;-80
2022/03/01 15:25:35;;;;;;;;;;;;;;;;;;5086190;28;20007;-79
2022/03/01 15:28:01;;;;;;;;;;;;;;;;;;5082465;28;19930;-79
2022/03/01 15:30:26;;;;;;;;;;;;;;;;;;5081771;28;19920;-80
2022/03/01 15:32:52;;;;;;;;;;;;;;;;;;5086647;28;19970;-77
2022/03/01 15:35:17;;;;;;;;;;;;;;;;;;5081185;28;19942;-77
2022/03/01 15:37:43;;;;;;;;;;;;;;;;;;5086226;28;19963;-79
2022/03/01 15:40:09;;;;;;;;;;;;;;;;;;5077613;28;19935;-80
2022/03/01 15:42:35;;;;;;;;;;;;;;;;;;5090446;28;19920;-79
2022/03/01 15:45:01;;;;;;;;;;;;;;;;;;5073420;28;19946;-76
2022/03/01 15:47:27;;;;;;;;;;;;;;;;;;5072810;28;19943;-77
2022/03/01 15:49:52;;;;;;;;;;;;;;;;;;5072692;28;19917;-78
2022/03/01 15:52:18;;;;;;;;;;;;;;;;;;5072959;28;19916;-79
2022/03/01 15:54:43;;;;;;;;;;;;;;;;;;5051203;28;19925;-78
2022/03/01 15:57:10;;;;;;;;;;;;;;;;;;5052994;28;19917;-79
2022/03/01 15:59:36;;;;;;;;;;;;;;;;;;5053520;28;19917;-77
2022/03/01 16:02:02;;;;;;;;;;;;;;;;;;5054563;28;19924;-75
2022/03/01 16:04:28;;;;;;;;;;;;;;;;;;5054307;28;19917;-77
2022/03/01 16:06:53;;;;;;;;;;;;;;;;;;5054400;28;20015;-78
2022/03/01 16:09:19;;;;;;;;;;;;;;;;;;5054048;28;19917;-77
2022/03/01 16:11:44;;;;;;;;;;;;;;;;;;5057756;28;19924;-77
2022/03/01 16:14:10;;;;;;;;;;;;;;;;;;5062404;28;19924;-78
2022/03/01 16:16:39;;;;;;;;;;;;;;;;;;5059756;28;19925;-81
2022/03/01 16:19:06;;;;;;;;;;;;;;;;;;5059930;28;20368;-76
2022/03/01 16:21:32;;;;;;;;;;;;;;;;;;5058906;28;20477;-77
2022/03/01 16:23:57;;;;;;;;;;;;;;;;;;5060994;28;19928;-77
2022/03/01 16:26:23;;;;;;;;;;;;;;;;;;5060900;28;19996;-79
2022/03/01 16:28:50;;;;;;;;;;;;;;;;;;5062252;28;19917;-77
2022/03/01 16:31:16;;;;;;;;;;;;;;;;;;5059894;28;19920;-76
2022/03/01 16:33:42;;;;;;;;;;;;;;;;;;5071363;28;19922;-76
2022/03/01 16:36:07;;;;;;;;;;;;;;;;;;5064646;28;19979;-76
2022/03/01 16:38:34;;;;;;;;;;;;;;;;;;5067818;28;19959;-76
2022/03/01 16:41:00;;;;;;;;;;;;;;;;;;5065764;28;19952;-79